createdAt,value
2022-08-14T00:02:06.457Z,22.36
2022-08-14T00:07:10.743Z,22.42
2022-08-14T00:12:23.782Z,22.42
2022-08-14T00:17:27.001Z,22.49
2022-08-14T00:22:44.634Z,22.55
2022-08-14T00:27:54.215Z,22.53
2022-08-14T00:32:56.872Z,22.43
2022-08-14T00:37:59.135Z,22.47
2022-08-14T00:43:02.122Z,22.49
2022-08-14T00:48:04.762Z,22.44
2022-08-14T00:53:10.532Z,22.37
2022-08-14T00:58:32.526Z,22.31
2022-08-14T01:03:39.700Z,22.31
2022-08-14T01:08:52.301Z,22.31
2022-08-14T01:14:18.228Z,22.23
2022-08-14T01:19:43.703Z,22.17
2022-08-14T01:24:45.986Z,22.17
2022-08-14T01:35:18.269Z,22.08
2022-08-14T01:40:36.587Z,22.02
2022-08-14T01:46:06.020Z,22.04
2022-08-14T01:51:18.689Z,21.98
2022-08-14T01:56:24.558Z,21.98
2022-08-14T02:01:35.258Z,21.95
2022-08-14T02:06:38.900Z,21.83
2022-08-14T02:11:41.192Z,21.57
2022-08-14T02:16:47.949Z,21.54
2022-08-14T02:21:54.749Z,21.63
2022-08-14T02:28:23.039Z,21.50
2022-08-14T02:32:30.329Z,21.45
2022-08-14T02:37:47.443Z,21.41
2022-08-14T02:42:54.688Z,21.44
2022-08-14T02:48:10.540Z,21.56
2022-08-14T02:53:31.251Z,21.64
2022-08-14T02:58:38.728Z,21.67
2022-08-14T03:03:46.344Z,21.73
2022-08-14T03:08:48.525Z,21.77
2022-08-14T03:13:52.192Z,21.69
2022-08-14T03:18:59.857Z,21.71
2022-08-14T03:24:07.844Z,21.74
2022-08-14T03:29:26.149Z,21.77
2022-08-14T03:34:48.487Z,21.78
2022-08-14T03:39:50.889Z,21.77
2022-08-14T03:45:19.881Z,21.68
2022-08-14T03:50:14.992Z,21.61
2022-08-14T03:55:30.687Z,21.53
2022-08-14T04:00:42.920Z,21.51
2022-08-14T04:05:48.490Z,21.45
2022-08-14T04:10:51.014Z,21.41
2022-08-14T04:16:02.089Z,21.34
2022-08-14T04:21:08.077Z,21.23
2022-08-14T04:26:14.401Z,21.14
2022-08-14T04:32:56.273Z,21.16
2022-08-14T04:37:01.038Z,21.34
2022-08-14T04:42:47.582Z,21.52
2022-08-14T04:48:12.672Z,21.63
2022-08-14T04:53:17.491Z,21.66
2022-08-14T04:58:32.659Z,21.65
2022-08-14T05:03:37.822Z,21.74
2022-08-14T05:08:56.951Z,21.77
2022-08-14T05:14:34.338Z,21.93
2022-08-14T05:19:29.352Z,22.05
2022-08-14T05:24:31.703Z,22.24
2022-08-14T05:29:34.894Z,22.40
2022-08-14T05:34:36.937Z,22.60
2022-08-14T05:39:40.774Z,22.79
2022-08-14T05:44:42.860Z,23.01
2022-08-14T05:49:48.661Z,23.18
2022-08-14T05:54:50.589Z,23.31
2022-08-14T05:59:52.484Z,23.47
2022-08-14T06:04:55.198Z,23.63
2022-08-14T06:10:04.003Z,23.80
2022-08-14T06:15:08.416Z,24.07
2022-08-14T06:20:12.490Z,24.32
2022-08-14T06:25:16.213Z,24.52
2022-08-14T06:30:24.140Z,24.78
2022-08-14T06:35:32.402Z,25.11
2022-08-14T06:40:37.119Z,25.33
2022-08-14T06:45:43.687Z,25.55
2022-08-14T06:50:53.954Z,25.84
2022-08-14T06:56:00.822Z,26.06
2022-08-14T07:01:27.829Z,26.06
2022-08-14T07:06:46.273Z,26.24
2022-08-14T07:11:48.794Z,26.46
2022-08-14T07:16:50.667Z,26.83
2022-08-14T07:21:52.624Z,26.99
2022-08-14T07:26:54.636Z,27.24
2022-08-14T07:31:56.657Z,27.54
2022-08-14T07:37:00.861Z,27.72
2022-08-14T07:42:03.185Z,27.95
2022-08-14T07:47:05.409Z,28.19
2022-08-14T07:52:08.232Z,28.35
2022-08-14T07:57:12.626Z,28.44
2022-08-14T08:02:18.741Z,28.42
2022-08-14T08:07:22.902Z,28.46
2022-08-14T08:12:30.234Z,28.62
2022-08-14T08:17:42.706Z,28.80
2022-08-14T08:23:00.489Z,28.92
2022-08-14T08:28:22.200Z,28.98
2022-08-14T08:33:31.832Z,29.03
2022-08-14T08:39:15.583Z,29.15
2022-08-14T08:44:05.380Z,29.30
2022-08-14T08:49:07.635Z,29.25
2022-08-14T08:54:19.611Z,29.25
2022-08-14T08:59:31.703Z,29.10
2022-08-14T09:04:45.640Z,29.03
2022-08-14T09:09:59.997Z,29.08
2022-08-14T09:15:12.077Z,29.21
2022-08-14T09:20:26.015Z,29.35
2022-08-14T09:25:58.971Z,29.55
2022-08-14T09:30:57.780Z,29.65
2022-08-14T09:36:21.803Z,29.74
2022-08-14T09:42:20.473Z,29.66
2022-08-14T09:47:19.424Z,29.69
2022-08-14T09:52:34.059Z,29.83
2022-08-14T09:57:36.435Z,30.02
2022-08-14T10:02:45.712Z,30.33
2022-08-14T10:07:53.404Z,30.64
2022-08-14T10:13:01.062Z,30.73
2022-08-14T10:18:13.350Z,30.70
2022-08-14T10:23:23.010Z,30.70
2022-08-14T10:29:03.891Z,30.92
2022-08-14T10:34:13.014Z,31.24
2022-08-14T10:39:19.331Z,31.48
2022-08-14T10:44:25.045Z,31.64
2022-08-14T10:49:31.902Z,31.67
2022-08-14T10:54:43.063Z,31.84
2022-08-14T10:59:57.923Z,31.94
2022-08-14T11:05:11.508Z,31.88
2022-08-14T11:10:15.084Z,31.90
2022-08-14T11:15:22.930Z,31.99
2022-08-14T11:20:27.430Z,32.16
2022-08-14T11:25:41.349Z,32.11
2022-08-14T11:30:53.397Z,32.12
2022-08-14T11:35:59.527Z,32.01
2022-08-14T11:41:02.250Z,31.99
2022-08-14T11:46:06.491Z,31.96
2022-08-14T11:51:23.899Z,31.88
2022-08-14T11:56:35.788Z,31.79
2022-08-14T12:01:41.319Z,31.73
2022-08-14T12:06:52.743Z,31.75
2022-08-14T12:11:55.688Z,31.61
2022-08-14T12:17:11.860Z,31.50
2022-08-14T12:22:25.861Z,31.36
2022-08-14T12:28:02.468Z,31.28
2022-08-14T12:33:08.566Z,31.14
2022-08-14T12:38:19.568Z,30.94
2022-08-14T12:43:23.260Z,30.87
2022-08-14T12:48:32.186Z,30.80
2022-08-14T12:53:38.902Z,30.85
2022-08-14T12:58:51.886Z,30.96
2022-08-14T13:04:16.207Z,31.20
2022-08-14T13:09:19.228Z,31.14
2022-08-14T13:14:29.613Z,31.00
2022-08-14T13:19:33.102Z,31.06
2022-08-14T13:24:37.706Z,31.01
2022-08-14T13:29:46.619Z,31.17
2022-08-14T13:34:49.351Z,31.58
2022-08-14T13:39:56.699Z,31.83
2022-08-14T13:45:02.478Z,31.93
2022-08-14T13:50:11.609Z,32.12
2022-08-14T13:55:16.290Z,32.33
2022-08-14T14:00:21.628Z,32.52
2022-08-14T14:05:52.915Z,32.58
2022-08-14T14:10:56.152Z,32.64
2022-08-14T14:16:03.814Z,32.72
2022-08-14T14:21:06.549Z,32.78
2022-08-14T14:26:19.973Z,32.74
2022-08-14T14:31:30.200Z,32.53
2022-08-14T14:36:32.920Z,32.37
2022-08-14T14:41:43.511Z,32.17
2022-08-14T14:46:50.300Z,32.05
2022-08-14T14:51:52.666Z,31.83
2022-08-14T14:56:56.640Z,31.61
2022-08-14T15:02:02.417Z,31.55
2022-08-14T15:07:07.144Z,31.54
2022-08-14T15:12:34.710Z,31.56
2022-08-14T15:17:41.495Z,31.54
2022-08-14T15:22:51.379Z,31.50
2022-08-14T15:27:54.535Z,31.45
2022-08-14T15:32:57.498Z,31.41
2022-08-14T15:38:08.344Z,31.33
2022-08-14T15:43:12.778Z,31.29
2022-08-14T15:48:22.187Z,31.29
2022-08-14T15:53:25.122Z,31.25
2022-08-14T15:58:33.461Z,31.25
2022-08-14T16:03:39.971Z,31.29
2022-08-14T16:08:46.799Z,31.34
2022-08-14T16:13:52.498Z,31.32
2022-08-14T16:18:59.704Z,31.28
2022-08-14T16:24:03.344Z,31.28
2022-08-14T16:29:07.682Z,31.26
2022-08-14T16:34:45.509Z,31.29
2022-08-14T16:39:37.708Z,31.30
2022-08-14T16:44:41.205Z,31.33
2022-08-14T16:50:05.077Z,31.35
2022-08-14T16:55:09.584Z,31.36
2022-08-14T17:00:29.939Z,31.38
2022-08-14T17:05:41.777Z,31.29
2022-08-14T17:10:48.198Z,31.24
2022-08-14T17:16:25.425Z,31.24
2022-08-14T17:21:38.432Z,31.11
2022-08-14T17:26:44.959Z,30.94
2022-08-14T17:31:58.059Z,30.74
2022-08-14T17:37:02.717Z,30.53
2022-08-14T17:42:13.498Z,30.51
2022-08-14T17:47:18.059Z,30.36
2022-08-14T17:52:35.861Z,29.97
2022-08-14T17:57:42.962Z,29.77
2022-08-14T18:02:51.334Z,29.49
2022-08-14T18:07:59.717Z,29.35
2022-08-14T18:13:16.685Z,29.33
2022-08-14T18:18:19.669Z,29.33
2022-08-14T18:23:22.005Z,29.30
2022-08-14T18:28:48.105Z,29.14
2022-08-14T18:34:30.960Z,28.95
2022-08-14T18:40:02.062Z,28.70
2022-08-14T18:45:01.032Z,28.64
2022-08-14T18:50:27.025Z,28.59
2022-08-14T18:55:36.689Z,28.53
2022-08-14T19:00:58.837Z,28.42
2022-08-14T19:06:07.386Z,28.23
2022-08-14T19:11:34.523Z,28.06
2022-08-14T19:16:43.028Z,27.88
2022-08-14T19:21:57.886Z,27.65
2022-08-14T19:27:16.471Z,27.55
2022-08-14T19:32:39.679Z,27.46
2022-08-14T19:37:52.395Z,27.38
2022-08-14T19:42:58.456Z,27.33
2022-08-14T19:48:02.683Z,27.27
2022-08-14T19:53:11.588Z,27.26
2022-08-14T19:58:13.899Z,27.21
2022-08-14T20:03:18.951Z,27.16
2022-08-14T20:09:05.999Z,27.03
2022-08-14T20:13:58.403Z,26.99
2022-08-14T20:19:30.102Z,26.72
2022-08-14T20:24:41.117Z,26.51
2022-08-14T20:29:44.359Z,26.38
2022-08-14T20:34:51.231Z,26.31
2022-08-14T20:39:53.970Z,26.32
2022-08-14T20:45:21.388Z,26.21
2022-08-14T20:50:28.749Z,26.06
2022-08-14T20:55:41.487Z,25.81
2022-08-14T21:00:52.162Z,25.68
2022-08-14T21:06:00.017Z,25.75
2022-08-14T21:11:05.723Z,25.72
2022-08-14T21:16:33.662Z,25.69
2022-08-14T21:21:40.465Z,25.62
2022-08-14T21:26:51.403Z,25.55
2022-08-14T21:32:02.443Z,25.47
2022-08-14T21:37:23.512Z,25.37
2022-08-14T21:42:28.045Z,25.18
2022-08-14T21:47:30.017Z,25.11
2022-08-14T21:52:51.453Z,25.11
2022-08-14T21:58:46.312Z,24.92
2022-08-14T22:03:24.285Z,24.78
2022-08-14T22:08:27.304Z,24.36
2022-08-14T22:13:32.454Z,24.13
2022-08-14T22:18:34.601Z,24.24
2022-08-14T22:23:38.997Z,24.32
2022-08-14T22:28:44.852Z,24.24
2022-08-14T22:33:49.881Z,24.30
2022-08-14T22:38:59.703Z,24.43
2022-08-14T22:44:10.933Z,24.40
2022-08-14T22:49:16.507Z,24.41
2022-08-14T22:54:51.928Z,24.32
2022-08-14T22:59:55.672Z,24.17
2022-08-14T23:04:58.782Z,24.03
2022-08-14T23:10:32.471Z,24.03
2022-08-14T23:15:29.783Z,23.87
2022-08-14T23:20:36.268Z,23.71
2022-08-14T23:25:59.071Z,23.77
2022-08-14T23:31:08.353Z,23.83
2022-08-14T23:36:32.480Z,23.81
2022-08-14T23:41:45.842Z,23.59
2022-08-14T23:46:52.552Z,23.60
2022-08-14T23:52:49.582Z,23.69
2022-08-14T23:57:20.784Z,23.69
